Time;durP1;ratioP1;P1;durP2;ratioP2;P2;SDS_P1;SDS_P2;PMS_P1;PMS_P2;Temp;Humidity;BMP_temperature;BMP_pressure;BME280_temperature;BME280_humidity;BME280_pressure;Samples;Min_cycle;Max_cycle;Signal;HPM_P1;HPM_P2
2021/10/22 00:00:29;;;;;;;;;;;5.40;99.90;;;4.47;100.00;99562.34;4926012;28;19913;-82
2021/10/22 00:03:00;;;;;;;;;;;6.10;99.90;;;4.46;100.00;99611.03;4939532;28;19921;-83
2021/10/22 00:05:26;;;;;;;;;;;6.10;99.90;;;4.50;100.00;99616.97;4970321;28;20338;-82
2021/10/22 00:07:52;;;;;;;;;;;6.10;99.90;;;4.47;100.00;99598.84;4978098;28;19928;-82
2021/10/22 00:10:18;;;;;;;;;;;6.10;99.90;;;4.54;100.00;99602.09;4961998;28;19917;-82
2021/10/22 00:12:53;;;;;;;;;;;6.10;99.90;;;4.49;100.00;99595.28;4964017;28;19909;-83
2021/10/22 00:15:18;;;;;;;;;;;6.10;99.90;;;4.47;100.00;99586.69;4975677;28;19924;-83
2021/10/22 00:17:45;;;;;;;;;;;6.10;99.90;;;4.44;100.00;99605.03;4964580;28;20466;-83
2021/10/22 00:20:37;;;;;;;;;;;6.00;99.90;;;4.40;100.00;99605.22;4974075;28;20388;-84
2021/10/22 00:23:03;;;;;;;;;;;6.10;99.90;;;4.41;100.00;99612.97;4963332;28;19925;-83
2021/10/22 00:25:29;;;;;;;;;;;6.00;99.90;;;4.49;100.00;99617.88;4993920;28;20284;-82
2021/10/22 00:28:05;;;;;;;;;;;;;;;;;;;;;
2021/10/22 00:30:31;;;;;;;;;;;6.10;99.90;;;4.36;100.00;99616.66;4968089;27;20525;-83
2021/10/22 00:32:57;;;;;;;;;;;6.00;99.90;;;4.40;100.00;99634.72;4968517;28;19913;-83
2021/10/22 00:35:33;;;;;;;;;;;6.00;99.90;;;4.45;100.00;99684.94;4955978;28;19956;-82
2021/10/22 00:37:59;;;;;;;;;;;6.10;99.90;;;4.42;100.00;99652.91;4994898;28;19928;-83
2021/10/22 00:40:25;;;;;;;;;;;6.00;99.90;;;4.45;100.00;99629.31;4968137;27;19910;-83
2021/10/22 00:43:02;;;;;;;;;;;6.00;99.90;;;4.51;100.00;99635.19;5005340;28;19928;-82
2021/10/22 00:45:28;;;;;;;;;;;6.10;99.90;;;4.48;100.00;99619.63;5008208;28;19923;-82
2021/10/22 00:47:53;;;;;;;;;;;6.10;99.90;;;4.49;100.00;99621.34;5038451;28;19913;-82
2021/10/22 00:50:24;;;;;;;;;;;6.10;99.90;;;4.47;100.00;99604.94;4955274;28;19971;-83
2021/10/22 00:52:52;;;;;;;;;;;6.10;99.90;;;4.44;100.00;99601.59;4970594;28;19924;-83
2021/10/22 00:55:19;;;;;;;;;;;6.00;99.90;;;4.39;100.00;99606.97;4967228;28;20031;-83
2021/10/22 00:57:46;;;;;;;;;;;6.00;99.90;;;4.43;100.00;99618.13;4983806;28;19966;-82
2021/10/22 01:00:22;;;;;;;;;;;6.10;99.90;;;4.40;100.00;99621.69;4923300;28;21433;-82
2021/10/22 01:02:48;;;;;;;;;;;6.00;99.90;;;4.43;100.00;99610.31;4969832;28;19933;-83
2021/10/22 01:05:15;;;;;;;;;;;6.10;99.90;;;4.45;100.00;99611.09;4964284;28;20009;-82
2021/10/22 01:07:49;;;;;;;;;;;6.10;99.90;;;4.44;100.00;99601.59;4956747;28;19931;-83
2021/10/22 01:10:15;;;;;;;;;;;4.40;99.90;;;4.47;100.00;99610.13;4956136;28;19917;-82
2021/10/22 01:12:41;;;;;;;;;;;6.10;99.90;;;4.40;100.00;99600.00;4958978;28;19951;-82
2021/10/22 01:15:17;;;;;;;;;;;6.00;99.90;;;4.35;100.00;99599.34;4939692;28;19938;-84
2021/10/22 01:17:45;;;;;;;;;;;6.00;99.90;;;4.44;100.00;99614.59;4969114;28;20006;-82
2021/10/22 01:20:19;;;;;;;;;;;6.00;99.90;;;4.47;100.00;99604.94;4972910;28;20290;-82
2021/10/22 01:22:47;;;;;;;;;;;6.10;99.90;;;4.47;100.00;99606.66;4987173;28;19929;-83
2021/10/22 01:25:16;;;;;;;;;;;6.10;99.90;;;4.50;100.00;99763.81;4984081;28;20396;-82
2021/10/22 01:27:48;;;;;;;;;;;6.10;99.90;;;4.58;100.00;99714.00;4986496;28;19991;-83
2021/10/22 01:30:16;;;;;;;;;;;5.70;99.90;;;4.58;100.00;99687.94;4991357;28;20125;-82
2021/10/22 01:32:43;;;;;;;;;;;6.20;99.90;;;4.60;100.00;99653.94;4973390;28;20508;-82
2021/10/22 01:35:18;;;;;;;;;;;6.20;99.90;;;4.67;100.00;99640.63;4969441;28;19920;-82
2021/10/22 01:37:44;;;;;;;;;;;6.30;99.90;;;4.66;100.00;99625.03;4927955;28;19940;-82
2021/10/22 01:40:13;;;;;;;;;;;6.30;99.90;;;4.62;100.00;99619.13;4958899;28;20343;-81
2021/10/22 01:42:46;;;;;;;;;;;6.10;99.90;;;4.78;100.00;99600.25;4960887;28;19971;-82
2021/10/22 01:45:12;;;;;;;;;;;6.30;99.90;;;4.72;100.00;99586.53;4976666;28;19933;-82
2021/10/22 01:47:39;;;;;;;;;;;6.40;99.90;;;4.72;100.00;99599.56;4984873;28;19975;-82
2021/10/22 01:50:15;;;;;;;;;;;6.40;99.90;;;4.73;100.00;99593.44;4962268;28;20280;-82
2021/10/22 01:52:41;;;;;;;;;;;6.30;99.90;;;4.77;100.00;99599.38;4983283;28;19924;-82
2021/10/22 01:55:15;;;;;;;;;;;6.40;99.90;;;4.70;100.00;99608.38;4944093;28;20322;-81
2021/10/22 01:57:40;;;;;;;;;;;6.40;99.90;;;4.72;100.00;99601.31;4963145;28;19939;-82
2021/10/22 02:00:07;;;;;;;;;;;6.30;99.90;;;4.74;100.00;99604.72;4965177;28;20335;-82
2021/10/22 02:02:33;;;;;;;;;;;6.30;99.90;;;4.75;100.00;99606.41;4984703;28;19990;-82
2021/10/22 02:05:01;;;;;;;;;;;6.30;99.90;;;4.69;100.00;99675.31;5006932;28;20382;-82
2021/10/22 02:07:30;;;;;;;;;;;6.30;99.90;;;4.76;100.00;99649.84;4971061;28;19924;-82
2021/10/22 02:09:55;;;;;;;;;;;6.40;99.90;;;4.80;100.00;99635.78;4986195;28;20387;-82
2021/10/22 02:12:21;;;;;;;;;;;6.30;99.90;;;4.81;100.00;99618.34;4993969;28;20018;-82
2021/10/22 02:14:47;;;;;;;;;;;6.40;99.90;;;4.82;100.00;99613.09;4990019;28;19921;-81
2021/10/22 02:17:13;;;;;;;;;;;6.40;99.90;;;4.83;100.00;99601.72;4953631;28;19937;-82
2021/10/22 02:19:46;;;;;;;;;;;6.40;99.90;;;4.81;100.00;99589.66;4997112;28;19956;-82
2021/10/22 02:22:12;;;;;;;;;;;6.40;99.90;;;4.82;100.00;99592.22;5001690;28;19948;-82
2021/10/22 02:24:38;;;;;;;;;;;6.40;99.90;;;4.75;100.00;99589.91;4937501;28;20372;-81
2021/10/22 02:27:05;;;;;;;;;;;6.40;99.90;;;4.84;100.00;99564.31;4967034;28;20441;-82
2021/10/22 02:29:33;;;;;;;;;;;6.40;99.90;;;4.82;100.00;99554.88;4978858;28;19909;-82
2021/10/22 02:32:07;;;;;;;;;;;6.40;99.90;;;4.80;100.00;99557.53;4990120;28;19971;-83
2021/10/22 02:34:32;;;;;;;;;;;6.40;99.90;;;4.79;100.00;99560.19;4994505;28;19952;-82
2021/10/22 02:36:59;;;;;;;;;;;6.40;99.90;;;4.78;100.00;99563.72;5001037;28;19913;-82
2021/10/22 02:39:36;;;;;;;;;;;6.40;99.90;;;4.78;100.00;99554.13;4990000;28;19967;-83
2021/10/22 02:42:02;;;;;;;;;;;6.40;99.90;;;4.86;100.00;99564.22;4997649;28;19913;-82
2021/10/22 02:44:28;;;;;;;;;;;6.40;99.90;;;4.85;100.00;99557.34;4980931;28;19924;-83
2021/10/22 02:46:55;;;;;;;;;;;6.40;99.90;;;4.85;100.00;99563.41;4959996;28;19917;-82
2021/10/22 02:49:23;;;;;;;;;;;6.40;99.90;;;4.86;100.00;99557.28;4968898;28;20415;-82
2021/10/22 02:51:49;;;;;;;;;;;7.20;99.90;;;4.84;100.00;99563.47;4938420;28;19989;-82
2021/10/22 02:54:16;;;;;;;;;;;6.30;99.90;;;4.85;100.00;99571.22;4961005;28;20102;-82
2021/10/22 02:56:41;;;;;;;;;;;6.40;99.90;;;4.93;100.00;99576.13;5001633;28;19924;-82
2021/10/22 02:59:16;;;;;;;;;;;6.50;99.90;;;4.92;100.00;99577.91;4986312;28;19921;-82
2021/10/22 03:01:43;;;;;;;;;;;6.50;99.90;;;4.96;100.00;99589.03;4984726;28;20345;-82
2021/10/22 03:04:20;;;;;;;;;;;;;;;;;;;;;
2021/10/22 03:06:46;;;;;;;;;;;6.60;99.90;;;4.94;100.00;99572.59;4966088;28;20534;-82
2021/10/22 03:09:12;;;;;;;;;;;7.10;99.90;;;4.99;100.00;99577.63;4973379;28;19917;-82
2021/10/22 03:11:38;;;;;;;;;;;6.50;99.90;;;5.03;100.00;99584.41;4982880;28;19913;-82
2021/10/22 03:14:04;;;;;;;;;;;6.60;99.90;;;5.05;100.00;99583.41;5015564;28;19909;-82
2021/10/22 03:16:32;;;;;;;;;;;6.60;99.90;;;5.01;100.00;99584.50;5016980;28;19916;-81
2021/10/22 03:19:00;;;;;;;;;;;6.60;99.90;;;5.08;100.00;99591.13;4977844;28;19927;-82
2021/10/22 03:21:27;;;;;;;;;;;6.60;99.90;;;5.11;100.00;99585.78;4960179;27;19920;-82
2021/10/22 03:23:55;;;;;;;;;;;6.70;99.90;;;5.20;100.00;99596.75;4951541;28;20454;-82
2021/10/22 03:26:24;;;;;;;;;;;6.70;99.90;;;5.26;100.00;99586.88;4986746;28;20321;-82
2021/10/22 03:28:50;;;;;;;;;;;6.80;99.90;;;5.24;100.00;99583.50;4996930;28;19913;-82
2021/10/22 03:31:16;;;;;;;;;;;6.80;99.90;;;5.33;100.00;99593.56;4990253;28;19930;-83
2021/10/22 03:33:42;;;;;;;;;;;6.90;99.90;;;5.32;100.00;99589.25;4964345;28;20438;-82
2021/10/22 03:36:08;;;;;;;;;;;6.90;99.90;;;5.26;100.00;99594.72;4987700;28;20324;-82
2021/10/22 03:38:34;;;;;;;;;;;6.90;99.90;;;5.29;100.00;99588.50;4971804;28;19925;-81
2021/10/22 03:41:03;;;;;;;;;;;6.90;99.90;;;5.28;100.00;99579.00;4978892;28;20327;-82
2021/10/22 03:43:33;;;;;;;;;;;6.90;99.90;;;5.34;100.00;99583.97;4952521;28;19945;-82
2021/10/22 03:45:59;;;;;;;;;;;6.90;99.90;;;5.26;100.00;99573.00;4975002;28;20453;-82
2021/10/22 03:48:25;;;;;;;;;;;6.90;99.90;;;5.22;100.00;99571.44;4971436;28;19913;-82
2021/10/22 03:50:51;;;;;;;;;;;6.80;99.90;;;5.14;100.00;99556.97;4936905;28;19921;-81
2021/10/22 03:53:24;;;;;;;;;;;6.70;99.90;;;5.12;100.00;99563.16;4984151;28;20000;-81
2021/10/22 03:55:50;;;;;;;;;;;6.70;99.90;;;5.11;100.00;99562.28;4995093;28;19935;-82
2021/10/22 03:58:18;;;;;;;;;;;6.60;99.90;;;5.12;100.00;99566.63;5014653;28;20126;-82
2021/10/22 04:00:48;;;;;;;;;;;6.60;99.90;;;5.10;100.00;99568.44;5015884;28;19957;-81
2021/10/22 04:03:14;;;;;;;;;;;6.70;99.90;;;5.02;100.00;99565.31;5007314;28;19932;-82
2021/10/22 04:05:44;;;;;;;;;;;6.60;99.90;;;5.13;100.00;99568.28;5004563;28;19920;-82
2021/10/22 04:08:11;;;;;;;;;;;6.70;99.90;;;5.22;100.00;99574.03;4990726;28;19948;-82
2021/10/22 04:10:44;;;;;;;;;;;6.80;99.90;;;5.17;100.00;99561.19;4931459;28;20411;-82
2021/10/22 04:13:11;;;;;;;;;;;6.70;99.90;;;5.20;100.00;99561.06;4944848;28;20323;-81
2021/10/22 04:15:44;;;;;;;;;;;6.70;99.90;;;5.14;100.00;99562.19;4976791;28;19924;-82
2021/10/22 04:18:10;;;;;;;;;;;6.80;99.90;;;5.10;100.00;99546.72;5003429;28;20089;-82
2021/10/22 04:20:36;;;;;;;;;;;6.70;99.90;;;5.15;100.00;99578.69;4999687;28;19912;-82
2021/10/22 04:23:03;;;;;;;;;;;6.70;99.90;;;5.19;100.00;99561.13;5002152;28;20040;-82
2021/10/22 04:25:29;;;;;;;;;;;6.70;99.90;;;5.24;100.00;99559.16;5015486;28;19952;-81
2021/10/22 04:27:58;;;;;;;;;;;6.80;99.90;;;5.25;100.00;99548.66;5015795;28;20062;-82
2021/10/22 04:30:23;;;;;;;;;;;6.80;99.90;;;5.23;100.00;99555.72;5009367;28;19939;-82
2021/10/22 04:32:52;;;;;;;;;;;6.90;99.90;;;5.21;100.00;99538.44;4964057;28;19913;-83
2021/10/22 04:35:18;;;;;;;;;;;6.80;99.90;;;5.21;100.00;99547.09;4993480;28;20312;-82
2021/10/22 04:40:33;;;;;;;;;;;6.80;99.90;;;5.25;100.00;99537.38;4981305;28;20322;-83
2021/10/22 04:43:02;;;;;;;;;;;6.80;99.90;;;5.25;100.00;99526.94;5004626;28;19909;-82
2021/10/22 04:45:29;;;;;;;;;;;6.80;99.90;;;5.28;100.00;99524.19;4996991;28;19999;-81
2021/10/22 04:47:56;;;;;;;;;;;6.80;99.90;;;5.29;100.00;99536.31;5016226;28;20339;-81
2021/10/22 04:50:24;;;;;;;;;;;6.90;99.90;;;5.36;100.00;99540.38;4947620;28;19921;-82
2021/10/22 04:52:56;;;;;;;;;;;6.90;99.90;;;5.42;100.00;99528.78;4991668;28;19920;-81
2021/10/22 04:55:27;;;;;;;;;;;6.90;99.90;;;5.42;100.00;99529.66;4979786;28;19925;-81
2021/10/22 04:57:54;;;;;;;;;;;7.00;99.90;;;5.41;100.00;99542.78;4997537;28;19917;-81
2021/10/22 05:00:21;;;;;;;;;;;7.00;99.90;;;5.41;100.00;99529.72;4962633;28;19921;-82
2021/10/22 05:02:48;;;;;;;;;;;6.90;99.90;;;5.42;100.00;99526.19;4970795;28;20377;-82
2021/10/22 05:05:14;;;;;;;;;;;7.00;99.90;;;5.39;100.00;99518.50;4999348;28;19952;-81
2021/10/22 05:07:43;;;;;;;;;;;7.00;99.90;;;5.44;100.00;99521.75;5004941;28;19949;-82
2021/10/22 05:10:09;;;;;;;;;;;7.00;99.90;;;5.37;100.00;99515.09;4974183;28;20240;-81
2021/10/22 05:12:35;;;;;;;;;;;7.00;99.90;;;5.32;100.00;99510.09;5029445;28;19909;-82
2021/10/22 05:15:02;;;;;;;;;;;5.10;99.90;;;5.41;100.00;99517.50;4995512;28;19960;-82
2021/10/22 05:17:28;;;;;;;;;;;6.90;99.90;;;5.39;100.00;99508.91;4957015;28;20409;-81
2021/10/22 05:19:55;;;;;;;;;;;7.00;99.90;;;5.37;100.00;99510.72;5019873;28;19966;-81
2021/10/22 05:22:28;;;;;;;;;;;7.00;99.90;;;5.41;100.00;99520.13;4960357;28;19917;-82
2021/10/22 05:24:54;;;;;;;;;;;7.00;99.90;;;5.43;100.00;99513.06;4990033;28;19925;-82
2021/10/22 05:27:21;;;;;;;;;;;7.00;99.90;;;5.42;100.00;99500.94;4978508;28;20359;-81
2021/10/22 05:29:46;;;;;;;;;;;7.00;99.90;;;5.39;100.00;99503.69;4980013;28;19908;-82
2021/10/22 05:32:20;;;;;;;;;;;7.00;99.90;;;5.42;100.00;99503.56;4972887;28;19921;-81
2021/10/22 05:34:46;;;;;;;;;;;7.00;99.90;;;5.46;100.00;99499.03;4970366;28;19921;-82
2021/10/22 05:37:12;;;;;;;;;;;7.00;99.90;;;5.46;100.00;99486.81;4985778;28;19914;-82
2021/10/22 05:39:38;;;;;;;;;;;7.00;99.90;;;5.42;100.00;99474.84;4980378;28;20369;-82
2021/10/22 05:42:15;;;;;;;;;;;7.00;99.90;;;5.38;100.00;99481.13;4936725;28;19917;-81
2021/10/22 05:44:41;;;;;;;;;;;7.00;99.90;;;5.37;100.00;99484.63;4996531;28;19921;-82
2021/10/22 05:47:07;;;;;;;;;;;7.00;99.90;;;5.39;100.00;99493.22;4950975;28;19974;-82
2021/10/22 05:49:40;;;;;;;;;;;7.00;99.90;;;5.40;100.00;99481.88;4955460;28;19928;-81
2021/10/22 05:52:06;;;;;;;;;;;7.00;99.90;;;5.42;100.00;99476.56;4954895;28;19971;-82
2021/10/22 05:54:32;;;;;;;;;;;7.00;99.90;;;5.41;100.00;99482.72;4977445;28;20011;-82
2021/10/22 05:56:58;;;;;;;;;;;7.00;99.90;;;5.40;100.00;99479.28;4988009;28;19976;-81
2021/10/22 05:59:26;;;;;;;;;;;7.00;99.90;;;5.40;100.00;99479.28;4995855;28;22124;-81
2021/10/22 06:01:56;;;;;;;;;;;7.00;99.90;;;5.40;100.00;99475.81;4948392;28;19932;-81
2021/10/22 06:04:22;;;;;;;;;;;7.70;99.90;;;5.46;100.00;99478.97;4989474;28;20821;-81
2021/10/22 06:06:48;;;;;;;;;;;7.00;99.90;;;5.42;100.00;99472.22;4964708;28;19917;-81
2021/10/22 06:09:14;;;;;;;;;;;7.00;99.90;;;5.38;100.00;99477.63;4979039;28;20284;-82
2021/10/22 06:11:45;;;;;;;;;;;7.00;99.90;;;5.33;100.00;99470.00;4996208;28;20376;-81
2021/10/22 06:14:13;;;;;;;;;;;6.90;99.90;;;5.31;100.00;99474.44;4986683;28;19931;-82
2021/10/22 06:16:39;;;;;;;;;;;6.90;99.90;;;5.32;100.00;99473.56;5015522;28;19936;-81
2021/10/22 06:19:05;;;;;;;;;;;6.90;99.90;;;5.32;100.00;99476.16;4964565;28;20015;-81
2021/10/22 06:21:39;;;;;;;;;;;6.90;99.90;;;5.33;100.00;99451.75;4963808;28;19948;-82
2021/10/22 06:24:05;;;;;;;;;;;6.90;99.90;;;5.35;100.00;99460.34;5012568;28;20029;-82
2021/10/22 06:26:39;;;;;;;;;;;6.90;99.90;;;5.41;100.00;99459.22;4969482;28;20365;-82
2021/10/22 06:29:07;;;;;;;;;;;7.00;99.90;;;5.45;100.00;99461.63;5029237;28;19924;-82
2021/10/22 06:31:33;;;;;;;;;;;7.00;99.90;;;5.46;100.00;99468.53;5040095;28;19945;-81
2021/10/22 06:34:00;;;;;;;;;;;7.00;99.90;;;5.53;100.00;99458.69;5003459;28;19913;-82
2021/10/22 06:36:36;;;;;;;;;;;7.00;99.90;;;5.52;100.00;99452.59;4949031;28;20223;-81
2021/10/22 06:39:03;;;;;;;;;;;7.00;99.90;;;5.52;100.00;99446.53;4940053;28;19921;-81
2021/10/22 06:41:29;;;;;;;;;;;7.00;99.90;;;5.55;100.00;99455.06;4988744;28;19909;-81
2021/10/22 06:43:54;;;;;;;;;;;7.10;99.90;;;5.59;100.00;99447.94;4984201;28;19929;-81
2021/10/22 06:46:21;;;;;;;;;;;7.10;99.90;;;5.54;100.00;99432.47;4970239;28;19917;-83
2021/10/22 06:48:54;;;;;;;;;;;7.10;99.90;;;5.62;100.00;99437.34;4978509;28;20384;-83
2021/10/22 06:51:20;;;;;;;;;;;7.10;99.90;;;5.66;100.00;99438.91;4989033;28;19916;-81
2021/10/22 06:53:46;;;;;;;;;;;7.20;99.90;;;5.72;99.58;99425.56;4958693;28;20319;-81
2021/10/22 06:56:18;;;;;;;;;;;7.30;99.90;;;5.80;99.05;99430.41;4997003;28;19983;-81
2021/10/22 06:58:44;;;;;;;;;;;7.30;99.90;;;5.92;98.59;99437.66;5012175;28;19912;-81
2021/10/22 07:01:10;;;;;;;;;;;7.40;99.90;;;5.93;97.98;99439.34;4984086;28;19917;-82
2021/10/22 07:03:43;;;;;;;;;;;7.40;99.90;;;5.84;98.12;99413.69;5002174;28;19929;-81
2021/10/22 07:08:55;;;;;;;;;;;7.30;99.90;;;5.69;99.79;99406.56;4979359;28;22260;-81
2021/10/22 07:11:23;;;;;;;;;;;7.20;99.90;;;5.69;100.00;99412.63;4992964;28;19916;-82
2021/10/22 07:13:58;;;;;;;;;;;7.20;99.90;;;5.73;99.59;99408.13;4937333;28;19932;-81
2021/10/22 07:16:31;;;;;;;;;;;7.30;99.90;;;5.83;99.14;99405.91;5007723;28;19955;-82
2021/10/22 07:19:02;;;;;;;;;;;7.20;99.90;;;5.84;98.25;99410.22;4970335;28;20117;-81
2021/10/22 07:21:29;;;;;;;;;;;7.40;99.90;;;5.87;97.24;99402.22;4984394;28;19924;-81
2021/10/22 07:23:57;;;;;;;;;;;7.40;99.90;;;5.87;97.31;99397.84;4997345;28;19964;-80
2021/10/22 07:26:25;;;;;;;;;;;7.40;99.90;;;5.88;97.17;99401.31;4991451;28;19916;-80
2021/10/22 07:28:51;;;;;;;;;;;7.40;99.90;;;5.91;97.22;99398.53;4974327;28;19926;-82
2021/10/22 07:31:17;;;;;;;;;;;7.40;99.90;;;5.98;96.79;99404.34;4992744;28;19936;-81
2021/10/22 07:33:44;;;;;;;;;;;7.50;99.90;;;5.89;97.00;99346.38;4954388;28;20026;-81
2021/10/22 07:36:16;;;;;;;;;;;7.50;99.90;;;5.88;97.49;99394.31;4949663;28;20288;-81
2021/10/22 07:38:43;;;;;;;;;;;7.50;99.90;;;5.80;97.98;99396.44;4982232;28;19910;-81
2021/10/22 07:41:13;;;;;;;;;;;7.40;99.90;;;5.81;98.61;99394.69;5026068;28;20993;-82
2021/10/22 07:43:42;;;;;;;;;;;7.30;99.90;;;5.75;99.39;99391.47;4998356;28;19929;-82
2021/10/22 07:46:12;;;;;;;;;;;7.30;99.90;;;5.75;100.00;99401.06;4989968;28;19920;-82
2021/10/22 07:48:39;;;;;;;;;;;7.30;99.90;;;5.66;100.00;99391.03;4992211;28;19912;-81
2021/10/22 07:51:05;;;;;;;;;;;7.30;99.90;;;5.73;100.00;99393.28;4948133;28;20315;-82
2021/10/22 07:53:33;;;;;;;;;;;7.20;99.90;;;5.71;100.00;99407.34;4952592;28;19919;-82
2021/10/22 07:56:05;;;;;;;;;;;7.30;99.90;;;5.60;100.00;99389.56;4988689;28;19921;-84
2021/10/22 07:58:31;;;;;;;;;;;7.60;99.90;;;5.59;100.00;99390.47;4912736;28;20632;-83
2021/10/22 08:00:57;;;;;;;;;;;7.00;99.90;;;5.55;100.00;99370.69;4958764;28;20046;-83
2021/10/22 08:03:33;;;;;;;;;;;7.10;99.90;;;5.59;100.00;99380.03;4925827;28;19924;-83
2021/10/22 08:06:01;;;;;;;;;;;6.30;99.90;;;5.65;100.00;99376.31;4956351;28;19909;-82
2021/10/22 08:08:35;;;;;;;;;;;7.10;99.90;;;5.66;100.00;99376.22;4926804;28;19997;-82
2021/10/22 08:11:00;;;;;;;;;;;7.20;99.90;;;5.72;100.00;99368.09;4956944;28;19968;-83
2021/10/22 08:13:26;;;;;;;;;;;7.10;99.90;;;5.69;100.00;99380.47;4989639;27;19919;-83
2021/10/22 08:15:54;;;;;;;;;;;7.20;99.90;;;5.64;100.00;99372.00;5004597;28;19933;-83
2021/10/22 08:18:28;;;;;;;;;;;7.20;99.90;;;5.59;100.00;99364.38;4928305;28;19921;-85
2021/10/22 08:21:04;;;;;;;;;;;7.10;99.90;;;5.60;100.00;99367.84;4966814;28;20371;-84
2021/10/22 08:23:33;;;;;;;;;;;7.10;99.90;;;5.53;100.00;99360.31;4977130;28;19970;-84
2021/10/22 08:25:59;;;;;;;;;;;7.00;99.90;;;5.56;100.00;99361.91;4975239;28;20362;-84
2021/10/22 08:28:25;;;;;;;;;;;7.00;99.90;;;5.54;100.00;99354.16;5005020;28;19913;-85
2021/10/22 08:31:03;;;;;;;;;;;7.20;99.90;;;5.55;100.00;99353.25;4992309;28;19924;-85
2021/10/22 08:33:28;;;;;;;;;;;7.10;99.90;;;5.55;100.00;99342.81;4969552;28;19925;-84
2021/10/22 08:36:03;;;;;;;;;;;7.10;99.90;;;5.66;100.00;99317.91;4969812;28;19995;-85
2021/10/22 08:38:30;;;;;;;;;;;7.20;99.90;;;5.72;100.00;99354.19;4988323;28;20039;-85
2021/10/22 08:40:57;;;;;;;;;;;7.20;99.90;;;5.77;100.00;99347.00;4938889;28;20325;-84
2021/10/22 08:43:30;;;;;;;;;;;7.30;99.90;;;5.81;100.00;99335.47;4964132;28;19925;-84
2021/10/22 08:45:56;;;;;;;;;;;7.30;99.90;;;5.95;100.00;99332.19;4966375;28;19924;-84
2021/10/22 08:48:23;;;;;;;;;;;7.40;99.90;;;5.98;100.00;99328.56;4959630;28;19924;-85
2021/10/22 08:50:49;;;;;;;;;;;7.40;99.90;;;6.06;100.00;99327.28;5014680;28;19968;-84
2021/10/22 08:53:24;;;;;;;;;;;7.60;99.90;;;6.23;100.00;99331.66;4962463;27;19952;-85
2021/10/22 08:55:51;;;;;;;;;;;7.60;99.90;;;6.36;100.00;99324.88;4992576;27;21462;-85
2021/10/22 08:58:19;;;;;;;;;;;7.80;99.90;;;6.61;100.00;99334.06;4967476;28;20989;-85
2021/10/22 09:01:09;;;;;;;;;;;;;;;;;;;;;
2021/10/22 09:03:38;;;;;;;;;;;8.10;99.90;;;6.77;98.73;99324.47;4951570;28;21592;-84
2021/10/22 09:06:20;;;;;;;;;;;8.20;99.90;;;6.80;99.31;99315.59;4951850;28;20323;-85
2021/10/22 09:08:57;;;;;;;;;;;8.20;99.90;;;6.70;98.87;99311.81;4956136;28;19924;-85
2021/10/22 09:11:54;;;;;;;;;;;8.20;99.90;;;6.71;98.34;99314.31;4931639;28;19951;-83
2021/10/22 09:15:14;;;;;;;;;;;8.20;99.90;;;6.91;97.21;99323.75;4962260;28;19921;-84
2021/10/22 09:18:16;;;;;;;;;;;8.30;99.90;;;7.13;96.16;99325.19;4976936;27;19924;-84
2021/10/22 09:21:46;;;;;;;;;;;8.20;99.90;;;7.53;93.50;99334.28;4959011;28;19917;-83
2021/10/22 09:24:46;;;;;;;;;;;8.70;99.90;;;7.51;91.92;99330.06;4956663;28;19929;-84
2021/10/22 09:27:52;;;;;;;;;;;8.90;99.90;;;7.58;91.31;99334.00;4955197;28;19924;-84
2021/10/22 09:30:50;;;;;;;;;;;8.90;99.90;;;7.79;91.07;99332.81;4980101;28;19921;-85
2021/10/22 09:34:08;;;;;;;;;;;9.20;99.90;;;7.98;90.56;99350.94;4958039;28;20691;-83
2021/10/22 09:37:29;;;;;;;;;;;9.30;99.90;;;8.02;89.25;99349.81;4980777;28;20773;-83
2021/10/22 09:40:49;;;;;;;;;;;9.40;99.90;;;8.06;89.25;99333.94;4965895;28;20375;-83
2021/10/22 09:43:56;;;;;;;;;;;9.40;99.90;;;8.04;88.08;99331.41;4933444;28;19967;-84
2021/10/22 09:46:58;;;;;;;;;;;9.40;99.90;;;7.87;88.78;99327.13;4947740;28;20430;-83
2021/10/22 09:49:50;;;;;;;;;;;9.30;99.90;;;7.80;89.08;99289.13;4949849;28;19929;-83
2021/10/22 09:52:50;;;;;;;;;;;9.20;99.90;;;7.64;90.16;99332.84;4995973;28;19925;-84
2021/10/22 09:55:36;;;;;;;;;;;9.10;99.90;;;7.58;90.89;99412.59;4948748;28;20528;-83
2021/10/22 09:58:20;;;;;;;;;;;9.10;99.90;;;7.57;90.83;99382.94;4955190;28;20013;-83
2021/10/22 10:01:25;;;;;;;;;;;9.00;99.90;;;7.49;90.99;99366.81;4950601;28;21896;-84
2021/10/22 10:04:11;;;;;;;;;;;7.40;99.90;;;7.47;91.68;99354.72;4967120;28;19925;-82
2021/10/22 10:07:08;;;;;;;;;;;8.90;99.90;;;7.35;91.76;99369.38;4944657;28;19921;-83
2021/10/22 10:10:24;;;;;;;;;;;8.80;99.90;;;7.15;94.29;99341.66;4978348;28;19936;-84
2021/10/22 10:13:15;;;;;;;;;;;8.70;99.90;;;7.02;95.70;99353.69;4930815;28;19942;-83
2021/10/22 10:15:55;;;;;;;;;;;8.50;99.90;;;6.91;97.13;99328.09;4984802;27;19928;-83
2021/10/22 10:18:43;;;;;;;;;;;8.40;99.90;;;6.84;98.60;99309.28;4940003;28;19928;-84
2021/10/22 10:21:27;;;;;;;;;;;8.40;99.90;;;6.77;98.99;99431.72;4956233;28;20374;-85
2021/10/22 10:23:56;;;;;;;;;;;8.30;99.90;;;6.62;100.00;99429.91;4952010;28;20013;-84
2021/10/22 10:26:47;;;;;;;;;;;8.20;99.90;;;6.54;100.00;99434.66;4968813;28;20368;-86
2021/10/22 10:30:05;;;;;;;;;;;8.10;99.90;;;6.49;100.00;99416.59;4981214;28;19929;-85
2021/10/22 10:32:41;;;;;;;;;;;8.00;99.90;;;6.46;100.00;99408.94;4954304;28;20587;-85
2021/10/22 10:35:51;;;;;;;;;;;7.60;99.90;;;6.44;100.00;99402.09;4942984;28;19925;-85
2021/10/22 10:38:42;;;;;;;;;;;7.90;99.90;;;6.48;100.00;99400.97;4981146;28;19943;-85
2021/10/22 10:41:33;;;;;;;;;;;8.00;99.90;;;6.54;100.00;99401.53;4930330;28;19982;-85
2021/10/22 10:44:39;;;;;;;;;;;8.00;99.90;;;6.49;100.00;99385.22;4980041;28;19928;-86
2021/10/22 10:47:33;;;;;;;;;;;8.00;99.90;;;6.47;100.00;99402.75;4984164;28;19908;-85
2021/10/22 10:50:11;;;;;;;;;;;8.00;99.90;;;6.38;100.00;99384.94;4990850;28;20283;-85
2021/10/22 10:53:26;;;;;;;;;;;7.90;99.90;;;6.35;100.00;99387.72;4972181;28;19928;-85
2021/10/22 10:56:22;;;;;;;;;;;7.80;99.90;;;6.28;100.00;99384.53;4914891;28;19934;-84
2021/10/22 10:58:53;;;;;;;;;;;7.80;99.90;;;6.29;100.00;99394.06;4953287;28;19921;-85
2021/10/22 11:01:31;;;;;;;;;;;7.70;99.90;;;6.27;100.00;99395.09;4971607;28;19921;-85
2021/10/22 11:04:10;;;;;;;;;;;7.80;99.90;;;6.27;100.00;99401.16;4972472;28;19968;-85
2021/10/22 11:06:47;;;;;;;;;;;7.70;99.90;;;6.32;100.00;99400.91;4959535;28;19955;-85
2021/10/22 11:09:43;;;;;;;;;;;8.40;99.90;;;6.25;100.00;99408.22;4968929;28;20948;-85
2021/10/22 11:12:09;;;;;;;;;;;7.80;99.90;;;6.27;100.00;99395.09;4957088;28;19916;-84
2021/10/22 11:14:43;;;;;;;;;;;7.80;99.90;;;6.24;100.00;99385.63;4984230;28;20390;-84
2021/10/22 11:17:24;;;;;;;;;;;7.70;99.90;;;6.24;100.00;99384.75;4935060;28;19922;-85
2021/10/22 11:19:57;;;;;;;;;;;9.20;99.90;;;6.17;100.00;99365.94;4970243;27;19941;-85
2021/10/22 11:22:29;;;;;;;;;;;7.70;99.90;;;6.11;100.00;99346.19;4982940;28;19955;-85
2021/10/22 11:25:06;;;;;;;;;;;10.50;99.90;;;5.96;100.00;99339.09;4991999;27;20296;-84
2021/10/22 11:28:22;;;;;;;;;;;;;;;;;;;;;
2021/10/22 11:31:09;;;;;;;;;;;7.40;99.90;;;5.84;100.00;99334.47;4987491;28;20618;-84
2021/10/22 11:33:45;;;;;;;;;;;7.40;99.90;;;5.85;100.00;99347.47;4958763;28;19913;-85
2021/10/22 11:36:25;;;;;;;;;;;9.30;99.90;;;5.99;100.00;99369.47;4929066;28;19925;-85
2021/10/22 11:39:02;;;;;;;;;;;7.50;99.90;;;6.05;100.00;99383.09;4965355;28;19996;-86
2021/10/22 11:41:30;;;;;;;;;;;7.50;99.90;;;6.19;100.00;99395.44;4977837;28;19928;-87
2021/10/22 11:44:11;;;;;;;;;;;7.60;99.90;;;6.29;100.00;99409.75;4957276;28;19933;-85
2021/10/22 11:47:02;;;;;;;;;;;7.80;99.90;;;6.31;100.00;99400.06;4928592;28;21346;-85
2021/10/22 11:49:39;;;;;;;;;;;6.10;99.90;;;6.46;100.00;99392.41;4917939;28;20008;-85
2021/10/22 11:52:28;;;;;;;;;;;7.90;99.90;;;6.50;100.00;99402.63;4966068;28;20407;-85
2021/10/22 11:55:21;;;;;;;;;;;8.00;99.90;;;6.58;100.00;99396.97;4940530;28;19927;-86
2021/10/22 11:58:21;;;;;;;;;;;8.00;99.90;;;6.66;100.00;99415.75;4945456;28;19912;-85
2021/10/22 12:01:07;;;;;;;;;;;8.10;99.90;;;6.67;100.00;99401.72;4959472;28;19930;-85
2021/10/22 12:03:55;;;;;;;;;;;6.60;99.90;;;6.79;100.00;99418.56;4968100;28;20043;-85
2021/10/22 12:06:31;;;;;;;;;;;8.20;99.90;;;6.83;100.00;99411.41;4976896;28;19912;-85